Terminal Aerodrome Forecast
Issued by NWS

Home | Current Version | Previous Version | Text Only | Print | Product List | Glossary On
Versions: 1 2 3 4 5 6 7 8 9 10 11 12 13 14
156
FTUS45 KTFX 212340
TAFHVR
TAF
KHVR 212340Z 2200/2224 VRB05KT P6SM VCSH SCT030 BKN050
      TEMPO 2202/2206 -SHRASN BKN020
     FM220600 31005KT 6SM -SHSN BR SCT020 BKN040
     FM220900 03005KT P6SM OVC008 PROB30 2217/2221 1SM -SHSN OVC003=

USA.gov is the U.S. government's official web portal to all federal, state and local government web resources and services.